Dinghai, China
Current Conditions -  °F | °C
As of 5:00 AM on Wednesday 22 Oct 2014 (Local Time) from ZSNB Reporting Station
Scattered Clouds Scattered Clouds  
Wind Chill: 64°   Ceiling: Unl
Heat Index: 64°   Visibility: 4mi
Dew Point: 59°   Wind: 9mph
Humidity: 83%   Direction: 320°NW
Pressure: 30.12"   Gusts: NA
Location:  30.02°N, 122.1°E
Report Text: ZSNB 212100Z 32004MPS 300V020 7000 SCT033 18/15 Q1020 NOSIG
Loading
Personal Weather Stations






























Interactive Weather Map
Tropical Storm Tracking
New forecast layout! Learn more

10-Day Weather Forecast

Advertisements
Track Severe Weather on mobile